Terminal Aerodrome Forecast
Issued by NWS

Home | Current Version | Previous Version | Graphics & Text | Print | Product List | Glossary On
Versions: 1 2 3 4 5 6 7 8 9 10 11 12 13 14 15
000
FTUS45 KGGW 171720
TAFGDV
TAF
KGDV 171720Z 1718/1818 21007KT P6SM VCSH SCT008 OVC010
      TEMPO 1721/1722 4SM -RASN SCT002 OVC008
     FM172200 31010KT P6SM SCT008 OVC012
      TEMPO 1722/1724 4SM -RASN
     FM180000 30005KT P6SM OVC035
     FM180500 27005KT P6SM BKN045
     FM181100 29010KT P6SM BKN018
     FM181300 31010KT P6SM BKN045=

USA.gov is the U.S. government's official web portal to all federal, state and local government web resources and services.